createdAt,value
2023-05-12T00:01:15.946Z,1.63
2023-05-12T00:04:18.526Z,1.52
2023-05-12T00:07:21.187Z,1.47
2023-05-12T00:10:24.045Z,0.90
2023-05-12T00:13:27.010Z,1.88
2023-05-12T00:16:29.920Z,0.90
2023-05-12T00:19:33.716Z,1.52
2023-05-12T00:22:36.387Z,0.93
2023-05-12T00:25:38.930Z,1.30
2023-05-12T00:28:41.391Z,1.02
2023-05-12T00:31:44.307Z,2.47
2023-05-12T00:34:46.958Z,1.38
2023-05-12T00:37:50.009Z,0.80
2023-05-12T00:40:52.475Z,1.45
2023-05-12T00:43:55.503Z,1.17
2023-05-12T00:46:58.416Z,1.03
2023-05-12T00:50:00.900Z,1.33
2023-05-12T00:53:04.319Z,0.60
2023-05-12T00:56:06.940Z,1.48
2023-05-12T00:59:09.851Z,1.20
2023-05-12T01:02:16.036Z,2.95
2023-05-12T01:05:18.766Z,1.42
2023-05-12T01:08:23.246Z,0.70
2023-05-12T01:11:25.655Z,1.73
2023-05-12T01:14:28.325Z,2.22
2023-05-12T01:17:33.799Z,1.87
2023-05-12T01:20:36.986Z,1.20
2023-05-12T01:23:46.728Z,2.25
2023-05-12T01:26:49.696Z,2.40
2023-05-12T01:29:54.693Z,0.70
2023-05-12T01:32:57.248Z,0.82
2023-05-12T01:36:00.344Z,0.77
2023-05-12T01:39:03.571Z,0.80
2023-05-12T01:42:06.666Z,2.35
2023-05-12T01:45:10.054Z,1.17
2023-05-12T01:48:12.789Z,1.40
2023-05-12T01:51:17.422Z,1.45
2023-05-12T01:54:21.011Z,1.30
2023-05-12T01:57:23.494Z,1.10
2023-05-12T02:00:29.035Z,1.45
2023-05-12T02:03:34.006Z,2.97
2023-05-12T02:06:36.581Z,1.40
2023-05-12T02:09:39.381Z,2.83
2023-05-12T02:12:41.929Z,1.27
2023-05-12T02:15:45.707Z,1.13
2023-05-12T02:18:48.633Z,1.40
2023-05-12T02:21:51.191Z,1.42
2023-05-12T02:24:54.001Z,0.93
2023-05-12T02:27:57.113Z,1.10
2023-05-12T02:30:59.888Z,1.05
2023-05-12T02:34:06.326Z,1.67
2023-05-12T02:37:09.271Z,0.70
2023-05-12T02:40:12.621Z,0.80
2023-05-12T02:43:15.815Z,0.77
2023-05-12T02:46:19.238Z,1.15
2023-05-12T02:49:22.062Z,0.80
2023-05-12T02:52:24.439Z,0.77
2023-05-12T02:55:27.930Z,1.02
2023-05-12T02:58:30.438Z,2.58
2023-05-12T03:01:33.082Z,0.70
2023-05-12T03:04:35.842Z,0.65
2023-05-12T03:07:38.427Z,0.82
2023-05-12T03:10:41.434Z,1.00
2023-05-12T03:13:43.935Z,2.45
2023-05-12T03:16:46.718Z,0.55
2023-05-12T03:19:50.128Z,1.53
2023-05-12T03:22:53.433Z,0.55
2023-05-12T03:25:56.432Z,1.88
2023-05-12T03:28:58.990Z,1.60
2023-05-12T03:32:01.844Z,1.98
2023-05-12T03:35:06.565Z,1.50
2023-05-12T03:38:09.292Z,4.45
2023-05-12T03:41:12.293Z,2.50
2023-05-12T03:44:14.974Z,0.73
2023-05-12T03:47:17.974Z,1.80
2023-05-12T03:50:21.454Z,1.37
2023-05-12T03:53:24.002Z,0.70
2023-05-12T03:56:28.550Z,1.73
2023-05-12T03:59:32.165Z,0.60
2023-05-12T04:02:35.152Z,0.90
2023-05-12T04:05:39.556Z,1.48
2023-05-12T04:08:42.330Z,1.55
2023-05-12T04:11:44.939Z,1.03
2023-05-12T04:14:48.240Z,1.15
2023-05-12T04:17:51.183Z,0.55
2023-05-12T04:20:55.894Z,0.77
2023-05-12T04:23:58.577Z,0.70
2023-05-12T04:27:05.958Z,1.23
2023-05-12T04:30:09.209Z,1.10
2023-05-12T04:33:13.971Z,1.15
2023-05-12T04:36:17.336Z,2.55
2023-05-12T04:39:20.056Z,1.60
2023-05-12T04:42:23.311Z,0.60
2023-05-12T04:45:27.050Z,1.80
2023-05-12T04:48:29.988Z,2.10
2023-05-12T04:51:32.726Z,1.50
2023-05-12T04:54:35.234Z,1.90
2023-05-12T04:57:37.801Z,1.38
2023-05-12T05:00:40.686Z,1.48
2023-05-12T05:03:43.822Z,2.90
2023-05-12T05:06:47.252Z,0.93
2023-05-12T05:09:50.553Z,1.58
2023-05-12T05:12:53.759Z,0.93
2023-05-12T05:15:57.013Z,1.23
2023-05-12T05:19:05.675Z,1.20
2023-05-12T05:22:09.429Z,1.37
2023-05-12T05:25:12.014Z,2.75
2023-05-12T05:28:14.614Z,2.05
2023-05-12T05:31:17.766Z,1.50
2023-05-12T05:34:20.560Z,1.67
2023-05-12T05:37:23.473Z,2.47
2023-05-12T05:40:26.325Z,1.52
2023-05-12T05:43:29.947Z,4.33
2023-05-12T05:46:33.495Z,2.28
2023-05-12T05:49:36.751Z,1.30
2023-05-12T05:52:39.428Z,1.10
2023-05-12T05:55:42.072Z,1.80
2023-05-12T05:58:44.798Z,1.42
2023-05-12T06:01:48.250Z,1.17
2023-05-12T06:04:52.520Z,1.77
2023-05-12T06:07:55.623Z,6.60
2023-05-12T06:10:59.127Z,1.30
2023-05-12T06:14:01.540Z,1.10
2023-05-12T06:17:04.319Z,1.00
2023-05-12T06:20:07.511Z,1.50
2023-05-12T06:23:10.905Z,1.37
2023-05-12T06:26:14.613Z,1.45
2023-05-12T06:29:17.139Z,1.63
2023-05-12T06:32:19.694Z,1.45
2023-05-12T06:35:22.514Z,1.55
2023-05-12T06:38:25.054Z,1.95
2023-05-12T06:41:27.710Z,1.10
2023-05-12T06:44:30.984Z,2.17
2023-05-12T06:47:33.739Z,3.13
2023-05-12T06:50:36.435Z,4.00
2023-05-12T06:53:40.333Z,1.63
2023-05-12T06:56:43.500Z,1.65
2023-05-12T06:59:46.294Z,1.40
2023-05-12T07:02:48.887Z,2.50
2023-05-12T07:05:52.193Z,2.28
2023-05-12T07:08:55.688Z,1.00
2023-05-12T07:11:59.240Z,1.98
2023-05-12T07:15:01.636Z,2.53
2023-05-12T07:22:32.357Z,2.67
2023-05-12T07:25:35.756Z,2.85
2023-05-12T07:28:38.390Z,4.28
2023-05-12T07:31:40.880Z,1.38
2023-05-12T07:34:43.821Z,3.15
2023-05-12T07:37:46.243Z,1.93
2023-05-12T07:40:49.427Z,1.70
2023-05-12T07:43:52.209Z,1.75
2023-05-12T07:46:54.907Z,1.57
2023-05-12T07:49:58.073Z,2.50
2023-05-12T07:53:00.778Z,1.85
2023-05-12T07:56:03.262Z,2.13
2023-05-12T07:59:06.409Z,1.40
2023-05-12T08:02:08.995Z,1.67
2023-05-12T08:05:11.762Z,1.77
2023-05-12T08:08:16.814Z,1.37
2023-05-12T08:11:19.624Z,1.50
2023-05-12T08:14:22.777Z,1.08
2023-05-12T08:17:29.074Z,2.73
2023-05-12T08:20:32.217Z,2.50
2023-05-12T08:23:34.804Z,2.08
2023-05-12T08:26:37.278Z,3.83
2023-05-12T08:29:39.959Z,1.52
2023-05-12T08:32:42.532Z,1.92
2023-05-12T08:35:45.277Z,2.85
2023-05-12T08:38:47.837Z,1.10
2023-05-12T08:42:09.486Z,1.50
2023-05-12T08:45:12.215Z,1.67
2023-05-12T08:48:17.919Z,3.63
2023-05-12T08:51:21.986Z,1.20
2023-05-12T08:54:27.329Z,1.75
2023-05-12T08:57:30.114Z,1.42
2023-05-12T09:00:35.146Z,1.08
2023-05-12T09:03:37.724Z,1.52
2023-05-12T09:06:40.575Z,1.88
2023-05-12T09:09:46.013Z,1.50
2023-05-12T09:12:52.471Z,1.05
2023-05-12T09:15:56.881Z,1.85
2023-05-12T09:19:01.419Z,1.67
2023-05-12T09:22:03.993Z,1.92
2023-05-12T09:25:24.328Z,4.47
2023-05-12T09:28:36.111Z,3.03
2023-05-12T09:31:38.837Z,2.38
2023-05-12T09:34:43.465Z,1.52
2023-05-12T09:37:46.886Z,2.70
2023-05-12T09:40:49.360Z,0.53
2023-05-12T09:43:53.274Z,1.38
2023-05-12T09:46:55.790Z,2.03
2023-05-12T09:49:59.379Z,1.43
2023-05-12T09:53:02.566Z,1.02
2023-05-12T09:56:05.253Z,1.10
2023-05-12T09:59:10.109Z,0.98
2023-05-12T10:02:16.400Z,1.60
2023-05-12T10:05:21.392Z,1.33
2023-05-12T10:08:41.971Z,0.73
2023-05-12T10:11:45.124Z,1.07
2023-05-12T10:14:48.389Z,1.67
2023-05-12T10:17:53.861Z,2.58
2023-05-12T10:20:58.094Z,1.83
2023-05-12T10:24:03.738Z,1.38
2023-05-12T10:27:07.321Z,1.88
2023-05-12T10:30:10.842Z,1.30
2023-05-12T10:33:13.850Z,2.13
2023-05-12T10:36:18.096Z,1.33
2023-05-12T10:39:20.933Z,1.90
2023-05-12T10:42:25.714Z,0.80
2023-05-12T10:45:29.265Z,1.48
2023-05-12T10:48:31.947Z,0.80
2023-05-12T10:51:47.208Z,2.00
2023-05-12T10:54:49.763Z,1.45
2023-05-12T10:57:53.327Z,2.38
2023-05-12T11:01:06.181Z,2.53
2023-05-12T11:04:13.528Z,1.50
2023-05-12T11:07:20.495Z,1.92
2023-05-12T11:10:24.411Z,3.60
2023-05-12T11:13:28.466Z,1.70
2023-05-12T11:16:30.982Z,1.90
2023-05-12T11:19:33.862Z,2.53
2023-05-12T11:22:36.520Z,1.67
2023-05-12T11:25:39.160Z,1.30
2023-05-12T11:28:42.090Z,1.40
2023-05-12T11:31:47.916Z,1.35
2023-05-12T11:34:50.728Z,1.48
2023-05-12T11:37:53.206Z,1.63
2023-05-12T11:40:56.007Z,1.27
2023-05-12T11:43:58.678Z,1.60
2023-05-12T11:47:13.429Z,2.05
2023-05-12T11:50:23.713Z,1.85
2023-05-12T11:53:27.688Z,2.83
2023-05-12T11:56:30.874Z,1.27
2023-05-12T11:59:35.079Z,2.03
2023-05-12T12:02:39.804Z,2.65
2023-05-12T12:05:45.398Z,1.63
2023-05-12T12:09:02.546Z,1.23
2023-05-12T12:12:06.353Z,1.55
2023-05-12T12:15:10.420Z,1.50
2023-05-12T12:18:13.066Z,1.88
2023-05-12T12:21:17.216Z,0.90
2023-05-12T12:24:21.046Z,1.83
2023-05-12T12:27:23.547Z,2.05
2023-05-12T12:30:26.312Z,2.15
2023-05-12T12:33:29.380Z,1.42
2023-05-12T12:36:32.952Z,1.45
2023-05-12T12:39:35.556Z,1.48
2023-05-12T12:42:40.627Z,1.98
2023-05-12T12:45:43.239Z,1.50
2023-05-12T12:48:45.944Z,1.52
2023-05-12T12:51:48.515Z,1.85
2023-05-12T12:54:51.679Z,1.00
2023-05-12T12:57:54.152Z,1.77
2023-05-12T13:00:56.958Z,1.02
2023-05-12T13:04:00.357Z,1.88
2023-05-12T13:07:03.317Z,2.10
2023-05-12T13:10:06.253Z,1.23
2023-05-12T13:13:11.985Z,0.60
2023-05-12T13:16:14.550Z,1.63
2023-05-12T13:19:17.481Z,1.23
2023-05-12T13:22:20.155Z,0.98
2023-05-12T13:25:23.158Z,1.70
2023-05-12T13:28:25.714Z,1.38
2023-05-12T13:31:28.385Z,1.55
2023-05-12T13:34:30.863Z,2.08
2023-05-12T13:37:33.380Z,2.28
2023-05-12T13:40:35.778Z,2.20
2023-05-12T13:43:38.373Z,1.90
2023-05-12T13:46:41.010Z,2.20
2023-05-12T13:49:43.703Z,1.88
2023-05-12T13:52:47.669Z,1.42
2023-05-12T13:55:50.478Z,0.73
2023-05-12T13:58:55.313Z,2.50
2023-05-12T14:01:58.494Z,2.83
2023-05-12T14:05:01.021Z,2.35
2023-05-12T14:08:03.969Z,2.03
2023-05-12T14:11:06.367Z,2.67
2023-05-12T14:14:08.984Z,2.42
2023-05-12T14:17:11.390Z,2.50
2023-05-12T14:20:14.241Z,2.50
2023-05-12T14:23:16.723Z,2.42
2023-05-12T14:26:19.716Z,3.00
2023-05-12T14:29:22.072Z,2.05
2023-05-12T14:32:24.768Z,1.63
2023-05-12T14:35:27.901Z,2.35
2023-05-12T14:38:30.668Z,1.75
2023-05-12T14:41:33.190Z,2.63
2023-05-12T14:44:35.614Z,3.22
2023-05-12T14:47:38.324Z,2.23
2023-05-12T14:50:42.668Z,3.95
2023-05-12T14:53:45.218Z,2.65
2023-05-12T14:56:47.904Z,2.70
2023-05-12T14:59:54.377Z,3.60
2023-05-12T15:02:56.929Z,2.35
2023-05-12T15:09:05.135Z,2.78
2023-05-12T15:12:07.947Z,2.63
2023-05-12T15:15:11.793Z,3.47
2023-05-12T15:18:14.701Z,1.50
2023-05-12T15:21:17.166Z,2.53
2023-05-12T15:24:19.855Z,2.40
2023-05-12T15:27:22.492Z,3.43
2023-05-12T15:30:24.973Z,3.58
2023-05-12T15:33:27.621Z,2.85
2023-05-12T15:36:30.988Z,2.58
2023-05-12T15:39:33.868Z,3.75
2023-05-12T15:42:36.904Z,3.22
2023-05-12T15:45:39.444Z,3.83
2023-05-12T15:48:42.322Z,4.73
2023-05-12T15:51:44.993Z,5.32
2023-05-12T15:54:47.670Z,3.92
2023-05-12T15:57:50.357Z,3.87
2023-05-12T16:00:54.104Z,3.50
2023-05-12T16:03:56.875Z,3.25
2023-05-12T16:06:59.381Z,4.10
2023-05-12T16:10:03.422Z,4.10
2023-05-12T16:13:06.043Z,4.68
2023-05-12T16:16:08.885Z,3.22
2023-05-12T16:19:11.563Z,2.57
2023-05-12T16:22:14.556Z,3.38
2023-05-12T16:25:17.178Z,3.53
2023-05-12T16:28:20.420Z,5.63
2023-05-12T16:31:22.848Z,3.97
2023-05-12T16:34:26.003Z,4.57
2023-05-12T16:37:28.528Z,2.72
2023-05-12T16:40:31.506Z,2.83
2023-05-12T16:43:34.571Z,4.57
2023-05-12T16:46:38.221Z,3.80
2023-05-12T16:49:42.744Z,6.37
2023-05-12T16:52:45.139Z,3.90
2023-05-12T16:55:47.829Z,4.32
2023-05-12T16:58:50.662Z,5.33
2023-05-12T17:01:53.182Z,5.53
2023-05-12T17:04:55.873Z,4.55
2023-05-12T17:07:58.273Z,6.40
2023-05-12T17:11:01.264Z,5.22
2023-05-12T17:14:04.873Z,3.05
2023-05-12T17:17:07.825Z,4.07
2023-05-12T17:20:11.710Z,2.93
2023-05-12T17:23:14.198Z,3.67
2023-05-12T17:26:17.106Z,5.65
2023-05-12T17:29:20.450Z,4.40
2023-05-12T17:32:23.059Z,5.18
2023-05-12T17:35:25.908Z,3.70
2023-05-12T17:38:28.354Z,4.40
2023-05-12T17:41:31.069Z,8.20
2023-05-12T17:44:33.759Z,4.40
2023-05-12T17:47:36.313Z,5.30
2023-05-12T17:50:39.728Z,5.57
2023-05-12T17:53:42.319Z,7.93
2023-05-12T17:56:45.115Z,5.03
2023-05-12T17:59:48.012Z,5.83
2023-05-12T18:02:50.994Z,6.30
2023-05-12T18:05:54.271Z,4.65
2023-05-12T18:08:56.765Z,6.45
2023-05-12T18:11:59.959Z,9.48
2023-05-12T18:15:03.145Z,9.43
2023-05-12T18:18:06.082Z,6.70
2023-05-12T18:21:08.746Z,8.57
2023-05-12T18:24:11.232Z,8.82
2023-05-12T18:27:13.971Z,5.60
2023-05-12T18:30:16.677Z,4.47
2023-05-12T18:33:19.215Z,6.28
2023-05-12T18:36:21.916Z,6.00
2023-05-12T18:39:25.039Z,9.68
2023-05-12T18:42:29.030Z,7.15
2023-05-12T18:45:32.001Z,4.63
2023-05-12T18:48:34.809Z,3.08
2023-05-12T18:51:37.852Z,3.07
2023-05-12T18:54:40.371Z,1.85
2023-05-12T18:57:43.005Z,2.30
2023-05-12T19:00:46.057Z,2.00
2023-05-12T19:03:48.699Z,2.80
2023-05-12T19:06:51.710Z,1.17
2023-05-12T19:09:54.118Z,1.38
2023-05-12T19:12:56.810Z,1.55
2023-05-12T19:15:59.595Z,1.77
2023-05-12T19:19:02.779Z,1.23
2023-05-12T19:22:05.747Z,2.93
2023-05-12T19:25:09.473Z,1.05
2023-05-12T19:28:12.197Z,2.17
2023-05-12T19:31:15.011Z,1.70
2023-05-12T19:34:17.519Z,0.82
2023-05-12T19:37:20.449Z,2.55
2023-05-12T19:40:22.918Z,0.88
2023-05-12T19:43:25.685Z,0.98
2023-05-12T19:46:29.375Z,3.22
2023-05-12T19:49:35.987Z,2.47
2023-05-12T19:52:39.582Z,1.40
2023-05-12T19:55:42.006Z,1.40
2023-05-12T19:58:44.820Z,0.73
2023-05-12T20:01:49.268Z,2.10
2023-05-12T20:04:51.764Z,1.63
2023-05-12T20:07:54.467Z,0.90
2023-05-12T20:10:56.912Z,0.40
2023-05-12T20:13:59.545Z,1.00
2023-05-12T20:17:05.810Z,3.03
2023-05-12T20:20:11.401Z,1.48
2023-05-12T20:23:14.119Z,6.30
2023-05-12T20:26:16.640Z,1.73
2023-05-12T20:29:22.302Z,2.35
2023-05-12T20:32:25.316Z,0.70
2023-05-12T20:35:28.427Z,0.98
2023-05-12T20:38:31.236Z,1.15
2023-05-12T20:41:33.649Z,1.73
2023-05-12T20:44:36.713Z,1.17
2023-05-12T20:47:39.428Z,1.67
2023-05-12T20:50:42.294Z,0.65
2023-05-12T20:53:45.290Z,0.93
2023-05-12T20:56:47.717Z,1.90
2023-05-12T20:59:52.664Z,1.88
2023-05-12T21:02:56.159Z,1.27
2023-05-12T21:05:58.786Z,0.80
2023-05-12T21:09:01.345Z,0.73
2023-05-12T21:12:04.126Z,1.50
2023-05-12T21:15:09.731Z,5.45
2023-05-12T21:18:13.248Z,3.00
2023-05-12T21:21:16.071Z,2.88
2023-05-12T21:24:18.683Z,1.57
2023-05-12T21:27:21.097Z,2.55
2023-05-12T21:30:23.855Z,1.58
2023-05-12T21:33:26.532Z,1.93
2023-05-12T21:36:28.962Z,2.15
2023-05-12T21:39:31.643Z,1.55
2023-05-12T21:42:34.186Z,2.03
2023-05-12T21:45:37.318Z,1.00
2023-05-12T21:48:39.950Z,1.08
2023-05-12T21:51:42.400Z,1.80
2023-05-12T21:54:45.063Z,0.70
2023-05-12T21:57:47.547Z,0.85
2023-05-12T22:00:51.284Z,2.53
2023-05-12T22:03:54.508Z,1.17
2023-05-12T22:06:57.018Z,4.00
2023-05-12T22:09:59.600Z,1.40
2023-05-12T22:13:02.224Z,1.20
2023-05-12T22:16:05.297Z,0.77
2023-05-12T22:19:08.012Z,1.40
2023-05-12T22:22:10.862Z,2.20
2023-05-12T22:25:13.462Z,1.10
2023-05-12T22:28:16.064Z,0.98
2023-05-12T22:31:18.701Z,1.35
2023-05-12T22:34:21.638Z,1.67
2023-05-12T22:37:24.573Z,1.45
2023-05-12T22:40:27.837Z,1.13
2023-05-12T22:43:30.306Z,1.38
2023-05-12T22:46:33.107Z,2.05
2023-05-12T22:49:35.756Z,1.08
2023-05-12T22:52:38.333Z,2.17
2023-05-12T22:55:41.835Z,1.37
2023-05-12T22:58:44.622Z,3.05
2023-05-12T23:01:47.394Z,1.88
2023-05-12T23:04:50.190Z,2.23
2023-05-12T23:07:52.552Z,0.85
2023-05-12T23:10:55.281Z,1.38
2023-05-12T23:13:58.236Z,1.23
2023-05-12T23:17:01.088Z,1.35
2023-05-12T23:20:04.323Z,2.05
2023-05-12T23:23:07.167Z,1.23
2023-05-12T23:26:10.031Z,0.97
2023-05-12T23:29:12.452Z,1.77
2023-05-12T23:32:15.741Z,5.10
2023-05-12T23:35:18.465Z,1.53
2023-05-12T23:38:20.869Z,1.42
2023-05-12T23:41:23.641Z,4.55
2023-05-12T23:44:26.021Z,1.20
2023-05-12T23:47:28.720Z,1.83
2023-05-12T23:50:31.350Z,1.70
2023-05-12T23:53:34.091Z,1.50
2023-05-12T23:56:37.073Z,3.37
2023-05-12T23:59:39.609Z,3.17
